createdAt,value
2019-03-23T00:02:22.164Z,9.35
2019-03-23T00:04:50.135Z,8.73
2019-03-23T00:07:18.134Z,9.15
2019-03-23T00:09:46.172Z,9.23
2019-03-23T00:12:14.164Z,8.88
2019-03-23T00:14:42.135Z,8.70
2019-03-23T00:17:10.111Z,9.03
2019-03-23T00:19:38.099Z,9.88
2019-03-23T00:22:06.067Z,9.98
2019-03-23T00:24:34.039Z,8.38
2019-03-23T00:27:02.059Z,9.68
2019-03-23T00:29:30.067Z,9.73
2019-03-23T00:31:58.042Z,10.85
2019-03-23T00:34:26.024Z,11.50
2019-03-23T00:36:53.991Z,10.82
2019-03-23T00:39:21.963Z,10.60
2019-03-23T00:41:49.941Z,9.70
2019-03-23T00:44:17.917Z,10.10
2019-03-23T00:46:45.887Z,7.72
2019-03-23T00:49:13.867Z,8.83
2019-03-23T00:51:41.843Z,8.75
2019-03-23T00:54:09.845Z,8.55
2019-03-23T00:56:37.813Z,8.63
2019-03-23T00:59:05.793Z,8.43
2019-03-23T01:01:33.779Z,8.50
2019-03-23T01:04:01.752Z,8.35
2019-03-23T01:06:29.746Z,8.30
2019-03-23T01:08:57.718Z,8.53
2019-03-23T01:11:25.711Z,8.25
2019-03-23T01:13:53.692Z,7.35
2019-03-23T01:16:21.653Z,7.67
2019-03-23T01:18:49.911Z,8.15
2019-03-23T01:21:17.883Z,8.60
2019-03-23T01:23:45.847Z,9.25
2019-03-23T01:26:13.897Z,8.95
2019-03-23T01:28:41.984Z,8.20
2019-03-23T01:31:09.955Z,9.23
2019-03-23T01:33:37.944Z,8.73
2019-03-23T01:36:05.911Z,9.28
2019-03-23T01:38:33.883Z,8.18
2019-03-23T01:41:01.860Z,8.90
2019-03-23T01:43:29.838Z,8.55
2019-03-23T01:45:57.799Z,8.40
2019-03-23T01:48:25.774Z,9.73
2019-03-23T01:50:53.764Z,9.55
2019-03-23T01:53:21.729Z,9.05
2019-03-23T01:55:49.696Z,9.05
2019-03-23T01:58:17.674Z,9.23
2019-03-23T02:00:45.659Z,9.73
2019-03-23T02:03:13.625Z,8.08
2019-03-23T02:05:41.600Z,8.05
2019-03-23T02:08:09.579Z,9.73
2019-03-23T02:10:37.559Z,9.58
2019-03-23T02:13:05.554Z,10.45
2019-03-23T02:15:33.507Z,10.13
2019-03-23T02:18:01.479Z,9.93
2019-03-23T02:20:29.444Z,10.58
2019-03-23T02:22:57.429Z,10.20
2019-03-23T02:25:25.393Z,10.82
2019-03-23T02:27:53.375Z,10.88
2019-03-23T02:30:21.354Z,10.63
2019-03-23T02:32:49.343Z,10.30
2019-03-23T02:35:17.298Z,11.28
2019-03-23T02:37:45.280Z,10.65
2019-03-23T02:40:13.260Z,12.07
2019-03-23T02:42:41.224Z,12.15
2019-03-23T02:45:09.969Z,10.98
2019-03-23T02:47:37.953Z,11.90
2019-03-23T02:50:06.332Z,12.33
2019-03-23T02:52:34.371Z,13.10
2019-03-23T02:55:02.343Z,11.03
2019-03-23T02:57:30.325Z,10.28
2019-03-23T02:59:58.280Z,11.85
2019-03-23T03:02:26.260Z,12.55
2019-03-23T03:04:54.228Z,12.73
2019-03-23T03:07:22.213Z,11.70
2019-03-23T03:09:50.176Z,11.80
2019-03-23T03:12:18.158Z,14.83
2019-03-23T03:14:46.149Z,14.87
2019-03-23T03:17:14.112Z,14.00
2019-03-23T03:19:42.102Z,12.03
2019-03-23T03:22:10.083Z,11.65
2019-03-23T03:24:38.049Z,12.50
2019-03-23T03:27:06.028Z,12.23
2019-03-23T03:29:34.014Z,11.88
2019-03-23T03:32:01.965Z,11.00
2019-03-23T03:34:29.945Z,12.73
2019-03-23T03:36:57.904Z,11.65
2019-03-23T03:39:25.888Z,11.90
2019-03-23T03:41:53.860Z,10.88
2019-03-23T03:44:21.834Z,9.88
2019-03-23T03:46:49.800Z,9.70
2019-03-23T03:49:17.769Z,12.00
2019-03-23T03:51:45.763Z,11.33
2019-03-23T03:54:13.733Z,12.18
2019-03-23T03:56:41.718Z,12.13
2019-03-23T03:59:09.702Z,12.50
2019-03-23T04:01:37.687Z,12.88
2019-03-23T04:04:05.647Z,13.32
2019-03-23T04:06:33.612Z,12.82
2019-03-23T04:09:01.611Z,12.07
2019-03-23T04:11:29.580Z,11.03
2019-03-23T04:13:57.567Z,10.45
2019-03-23T04:16:25.529Z,9.30
2019-03-23T04:18:53.487Z,9.30
2019-03-23T04:21:21.476Z,9.93
2019-03-23T04:23:49.453Z,9.80
2019-03-23T04:26:17.437Z,10.93
2019-03-23T04:28:45.415Z,10.18
2019-03-23T04:33:42.684Z,10.18
2019-03-23T04:36:10.648Z,11.83
2019-03-23T04:38:38.633Z,12.13
2019-03-23T04:41:06.681Z,12.05
2019-03-23T04:43:34.758Z,15.08
2019-03-23T04:46:02.729Z,17.02
2019-03-23T04:48:30.717Z,15.55
2019-03-23T04:50:58.698Z,13.58
2019-03-23T04:53:26.668Z,17.95
2019-03-23T04:55:54.695Z,12.73
2019-03-23T04:58:22.655Z,12.28
2019-03-23T05:00:50.644Z,12.73
2019-03-23T05:03:18.683Z,12.10
2019-03-23T05:05:46.651Z,10.65
2019-03-23T05:08:14.644Z,10.60
2019-03-23T05:10:43.348Z,11.97
2019-03-23T05:13:11.323Z,13.00
2019-03-23T05:15:39.298Z,13.72
2019-03-23T05:18:07.269Z,13.28
2019-03-23T05:20:35.267Z,14.25
2019-03-23T05:23:03.265Z,12.82
2019-03-23T05:25:31.230Z,13.72
2019-03-23T05:27:59.204Z,12.25
2019-03-23T05:30:27.164Z,12.13
2019-03-23T05:32:55.139Z,13.32
2019-03-23T05:35:23.107Z,13.90
2019-03-23T05:37:51.083Z,12.63
2019-03-23T05:40:19.047Z,11.78
2019-03-23T05:42:47.055Z,12.88
2019-03-23T05:45:15.019Z,12.65
2019-03-23T05:47:43.017Z,15.25
2019-03-23T05:50:11.027Z,12.20
2019-03-23T05:52:39.045Z,10.85
2019-03-23T05:55:07.024Z,10.48
2019-03-23T05:57:34.984Z,9.73
2019-03-23T06:00:04.338Z,9.03
2019-03-23T06:02:32.299Z,8.63
2019-03-23T06:05:00.342Z,9.93
2019-03-23T06:07:28.363Z,9.18
2019-03-23T06:09:56.401Z,8.93
2019-03-23T06:12:24.370Z,9.60
2019-03-23T06:14:52.333Z,8.85
2019-03-23T06:17:20.335Z,9.30
2019-03-23T06:19:48.303Z,8.85
2019-03-23T06:22:16.263Z,9.60
2019-03-23T06:24:44.238Z,9.10
2019-03-23T06:27:12.212Z,9.33
2019-03-23T06:29:40.167Z,8.83
2019-03-23T06:32:08.140Z,9.18
2019-03-23T06:34:36.108Z,9.63
2019-03-23T06:37:04.093Z,8.43
2019-03-23T06:39:32.064Z,8.38
2019-03-23T06:42:00.030Z,8.18
2019-03-23T06:44:28.008Z,8.03
2019-03-23T06:46:55.972Z,7.00
2019-03-23T06:49:23.948Z,7.05
2019-03-23T06:51:51.911Z,7.25
2019-03-23T06:54:19.883Z,6.75
2019-03-23T06:56:47.939Z,6.92
2019-03-23T06:59:15.920Z,6.25
2019-03-23T07:01:43.920Z,6.22
2019-03-23T07:04:11.891Z,5.83
2019-03-23T07:06:39.871Z,5.92
2019-03-23T07:09:15.807Z,6.45
2019-03-23T07:11:37.561Z,6.27
2019-03-23T07:14:05.519Z,5.97
2019-03-23T07:19:44.336Z,6.15
2019-03-23T07:22:12.305Z,6.65
2019-03-23T07:24:40.313Z,6.17
2019-03-23T07:27:08.295Z,5.92
2019-03-23T07:29:36.255Z,5.78
2019-03-23T07:32:06.099Z,6.70
2019-03-23T07:34:33.919Z,6.45
2019-03-23T07:37:01.890Z,6.15
2019-03-23T07:39:30.619Z,6.17
2019-03-23T07:41:58.783Z,6.53
2019-03-23T07:44:26.786Z,6.60
2019-03-23T07:46:54.839Z,5.92
2019-03-23T07:49:22.808Z,6.33
2019-03-23T07:51:50.787Z,6.37
2019-03-23T07:54:18.755Z,6.95
2019-03-23T07:56:46.732Z,6.58
2019-03-23T07:59:14.696Z,6.40
2019-03-23T08:01:42.664Z,6.37
2019-03-23T08:04:10.667Z,7.35
2019-03-23T08:06:38.808Z,7.12
2019-03-23T08:09:06.779Z,8.00
2019-03-23T08:11:54.252Z,8.05
2019-03-23T08:14:22.229Z,8.48
2019-03-23T08:16:50.204Z,8.23
2019-03-23T08:19:18.264Z,8.28
2019-03-23T08:21:46.239Z,8.03
2019-03-23T08:24:14.205Z,9.33
2019-03-23T08:26:42.177Z,9.13
2019-03-23T08:29:10.151Z,8.83
2019-03-23T08:31:38.111Z,8.20
2019-03-23T08:34:06.104Z,9.10
2019-03-23T08:36:34.077Z,8.63
2019-03-23T08:39:02.039Z,8.80
2019-03-23T08:41:30.037Z,8.95
2019-03-23T08:43:58.006Z,8.93
2019-03-23T08:46:25.971Z,8.05
2019-03-23T08:48:53.972Z,8.30
2019-03-23T08:51:21.912Z,8.30
2019-03-23T08:53:49.891Z,8.48
2019-03-23T08:56:17.864Z,7.95
2019-03-23T08:58:45.404Z,9.40
2019-03-23T09:01:13.383Z,8.70
2019-03-23T09:03:51.788Z,9.33
2019-03-23T09:06:11.180Z,8.95
2019-03-23T09:08:39.155Z,10.55
2019-03-23T09:11:07.122Z,9.33
2019-03-23T09:13:40.511Z,8.93
2019-03-23T09:16:04.816Z,10.55
2019-03-23T09:18:32.798Z,9.58
2019-03-23T09:21:00.773Z,11.73
2019-03-23T09:23:28.783Z,12.53
2019-03-23T09:25:56.765Z,12.88
2019-03-23T09:28:24.732Z,14.55
2019-03-23T09:30:52.715Z,15.15
2019-03-23T09:33:20.716Z,15.35
2019-03-23T09:35:48.677Z,15.80
2019-03-23T09:38:16.660Z,16.20
2019-03-23T09:40:44.659Z,17.65
2019-03-23T09:43:12.629Z,18.87
2019-03-23T09:45:40.611Z,18.70
2019-03-23T09:48:08.584Z,19.05
2019-03-23T09:50:36.567Z,19.02
2019-03-23T09:53:04.554Z,19.17
2019-03-23T09:55:32.523Z,17.40
2019-03-23T09:58:00.487Z,17.30
2019-03-23T10:00:28.556Z,14.98
2019-03-23T10:02:56.523Z,13.75
2019-03-23T10:05:24.492Z,12.28
2019-03-23T10:07:52.512Z,11.88
2019-03-23T10:10:22.016Z,13.20
2019-03-23T10:12:50.266Z,12.53
2019-03-23T10:15:18.296Z,12.82
2019-03-23T10:17:46.266Z,11.97
2019-03-23T10:20:14.239Z,12.90
2019-03-23T10:22:42.231Z,12.65
2019-03-23T10:25:10.221Z,12.70
2019-03-23T10:27:38.179Z,13.83
2019-03-23T10:30:06.627Z,14.05
2019-03-23T10:32:34.636Z,13.13
2019-03-23T10:35:02.677Z,13.45
2019-03-23T10:37:30.667Z,14.25
2019-03-23T10:39:59.482Z,14.30
2019-03-23T10:42:27.460Z,12.78
2019-03-23T10:44:55.461Z,14.05
2019-03-23T10:47:24.196Z,13.53
2019-03-23T10:49:52.218Z,13.98
2019-03-23T10:52:20.207Z,14.30
2019-03-23T10:54:48.180Z,16.45
2019-03-23T10:57:16.151Z,15.95
2019-03-23T10:59:44.130Z,15.05
2019-03-23T11:02:12.103Z,15.68
2019-03-23T11:04:40.171Z,13.30
2019-03-23T11:07:08.140Z,15.48
2019-03-23T11:09:36.118Z,14.40
2019-03-23T11:12:04.092Z,14.58
2019-03-23T11:14:32.063Z,15.18
2019-03-23T11:17:00.027Z,15.50
2019-03-23T11:19:28.103Z,17.15
2019-03-23T11:21:56.207Z,15.48
2019-03-23T11:24:24.229Z,19.40
2019-03-23T11:26:52.212Z,18.70
2019-03-23T11:29:20.195Z,17.92
2019-03-23T11:31:48.184Z,19.32
2019-03-23T11:34:18.091Z,18.67
2019-03-23T11:36:45.856Z,20.45
2019-03-23T11:39:13.836Z,18.57
2019-03-23T11:41:41.801Z,25.52
2019-03-23T11:44:09.783Z,25.70
2019-03-23T11:46:37.794Z,26.68
2019-03-23T11:49:08.638Z,25.50
2019-03-23T11:51:36.612Z,24.40
2019-03-23T11:54:04.587Z,24.12
2019-03-23T11:56:32.553Z,26.73
2019-03-23T11:59:00.534Z,25.90
2019-03-23T12:01:28.569Z,25.10
2019-03-23T12:03:56.565Z,24.10
2019-03-23T12:06:24.540Z,26.25
2019-03-23T12:08:52.591Z,25.52
2019-03-23T12:11:20.569Z,23.18
2019-03-23T12:13:48.539Z,23.83
2019-03-23T12:16:16.509Z,24.85
2019-03-23T12:18:44.522Z,27.32
2019-03-23T12:21:12.507Z,25.35
2019-03-23T12:23:40.468Z,26.90
2019-03-23T12:26:08.436Z,26.73
2019-03-23T12:28:36.411Z,26.10
2019-03-23T12:31:04.396Z,26.82
2019-03-23T12:33:32.365Z,25.25
2019-03-23T12:36:00.377Z,26.80
2019-03-23T12:38:28.575Z,26.00
2019-03-23T12:40:56.572Z,27.90
2019-03-23T12:43:24.607Z,29.63
2019-03-23T12:45:52.703Z,25.23
2019-03-23T12:48:20.691Z,26.55
2019-03-23T12:50:48.631Z,27.22
2019-03-23T12:53:16.609Z,25.57
2019-03-23T12:55:44.666Z,27.13
2019-03-23T12:58:12.628Z,28.05
2019-03-23T13:00:40.624Z,27.67
2019-03-23T13:03:08.647Z,26.90
2019-03-23T13:05:36.663Z,26.27
2019-03-23T13:08:04.980Z,27.13
2019-03-23T13:10:32.951Z,29.07
2019-03-23T13:13:00.919Z,29.40
2019-03-23T13:15:29.176Z,30.55
2019-03-23T13:18:03.132Z,30.62
2019-03-23T13:20:31.322Z,31.37
2019-03-23T13:22:59.433Z,31.20
2019-03-23T13:25:27.456Z,32.15
2019-03-23T13:27:55.419Z,32.33
2019-03-23T13:30:23.387Z,31.30
2019-03-23T13:32:51.371Z,32.83
2019-03-23T13:35:19.446Z,32.60
2019-03-23T13:37:49.093Z,32.45
2019-03-23T13:40:17.125Z,34.27
2019-03-23T13:42:45.135Z,33.70
2019-03-23T13:45:13.147Z,32.65
2019-03-23T13:47:41.113Z,33.73
2019-03-23T13:50:09.604Z,34.40
2019-03-23T13:52:37.635Z,33.73
2019-03-23T13:55:05.871Z,34.73
2019-03-23T13:57:36.051Z,36.17
2019-03-23T14:00:05.228Z,38.23
2019-03-23T14:02:33.195Z,38.30
2019-03-23T14:05:01.185Z,36.68
2019-03-23T14:07:29.207Z,36.88
2019-03-23T14:09:57.180Z,36.48
2019-03-23T14:12:25.172Z,37.83
2019-03-23T14:14:53.163Z,37.35
2019-03-23T14:17:21.239Z,37.35
2019-03-23T14:19:49.201Z,37.67
2019-03-23T14:22:17.209Z,37.78
2019-03-23T14:24:45.189Z,37.20
2019-03-23T14:27:13.222Z,37.13
2019-03-23T14:29:41.212Z,38.20
2019-03-23T14:32:09.198Z,38.05
2019-03-23T14:34:37.414Z,38.17
2019-03-23T14:37:05.614Z,37.60
2019-03-23T14:39:33.575Z,37.48
2019-03-23T14:42:05.012Z,39.13
2019-03-23T14:44:31.244Z,37.50
2019-03-23T14:46:59.256Z,37.50
2019-03-23T14:49:27.224Z,37.28
2019-03-23T14:51:55.187Z,35.60
2019-03-23T14:54:23.235Z,36.15
2019-03-23T14:56:51.277Z,38.00
2019-03-23T14:59:19.304Z,37.42
2019-03-23T15:01:47.360Z,37.98
2019-03-23T15:04:15.333Z,37.05
2019-03-23T15:06:43.300Z,36.75
2019-03-23T15:09:11.272Z,35.35
2019-03-23T15:11:39.238Z,37.28
2019-03-23T15:14:07.374Z,37.50
2019-03-23T15:16:35.372Z,37.90
2019-03-23T15:19:03.333Z,39.27
2019-03-23T15:21:31.328Z,37.28
2019-03-23T15:23:59.298Z,40.43
2019-03-23T15:26:27.265Z,38.20
2019-03-23T15:28:55.253Z,37.70
2019-03-23T15:31:23.220Z,38.45
2019-03-23T15:33:51.223Z,42.75
2019-03-23T15:36:19.212Z,48.08
2019-03-23T15:38:47.182Z,51.10
2019-03-23T15:41:15.177Z,49.53
2019-03-23T15:43:43.162Z,50.15
2019-03-23T15:46:11.140Z,52.33
2019-03-23T15:48:39.115Z,53.33
2019-03-23T15:51:07.084Z,53.70
2019-03-23T15:53:35.051Z,53.35
2019-03-23T15:56:03.035Z,50.78
2019-03-23T15:58:31.344Z,53.95
2019-03-23T16:00:59.344Z,53.87
2019-03-23T16:03:27.311Z,54.48
2019-03-23T16:05:55.295Z,54.10
2019-03-23T16:08:23.275Z,55.03
2019-03-23T16:10:51.241Z,54.50
2019-03-23T16:13:19.243Z,54.75
2019-03-23T16:15:47.189Z,52.73
2019-03-23T16:18:15.172Z,53.55
2019-03-23T16:20:43.154Z,55.33
2019-03-23T16:23:11.139Z,53.10
2019-03-23T16:25:39.196Z,53.70
2019-03-23T16:28:07.179Z,53.95
2019-03-23T16:30:35.159Z,52.60
2019-03-23T16:33:03.129Z,49.20
2019-03-23T16:35:31.123Z,50.92
2019-03-23T16:37:59.114Z,48.80
2019-03-23T16:40:27.084Z,47.48
2019-03-23T16:42:55.055Z,44.10
2019-03-23T16:45:23.024Z,38.75
2019-03-23T16:47:51.016Z,39.03
2019-03-23T16:50:19.071Z,37.30
2019-03-23T16:52:47.037Z,35.65
2019-03-23T16:55:14.999Z,37.73
2019-03-23T16:57:42.960Z,37.00
2019-03-23T17:00:11.604Z,35.80
2019-03-23T17:02:39.582Z,35.80
2019-03-23T17:05:07.549Z,35.33
2019-03-23T17:07:35.528Z,36.17
2019-03-23T17:10:04.164Z,36.85
2019-03-23T17:12:32.139Z,38.08
2019-03-23T17:15:00.305Z,39.27
2019-03-23T17:17:28.402Z,37.40
2019-03-23T17:19:56.411Z,37.90
2019-03-23T17:22:24.371Z,37.73
2019-03-23T17:24:52.340Z,39.58
2019-03-23T17:27:20.405Z,38.25
2019-03-23T17:29:48.371Z,37.30
2019-03-23T17:32:16.343Z,36.55
2019-03-23T17:34:44.340Z,35.25
2019-03-23T17:37:12.312Z,37.28
2019-03-23T17:39:40.291Z,35.60
2019-03-23T17:42:08.268Z,36.53
2019-03-23T17:44:36.258Z,35.80
2019-03-23T17:47:04.227Z,35.65
2019-03-23T17:49:32.187Z,34.50
2019-03-23T17:52:00.180Z,34.80
2019-03-23T17:54:28.187Z,34.08
2019-03-23T17:56:56.263Z,34.30
2019-03-23T17:59:24.252Z,35.30
2019-03-23T18:01:52.215Z,33.80
2019-03-23T18:04:20.220Z,33.60
2019-03-23T18:06:48.188Z,32.58
2019-03-23T18:09:16.191Z,32.17
2019-03-23T18:11:44.148Z,32.40
2019-03-23T18:14:12.135Z,32.13
2019-03-23T18:16:40.124Z,32.55
2019-03-23T18:19:08.114Z,31.80
2019-03-23T18:21:36.095Z,33.48
2019-03-23T18:24:04.087Z,33.63
2019-03-23T18:26:32.361Z,33.13
2019-03-23T18:29:00.340Z,32.95
2019-03-23T18:31:28.369Z,34.00
2019-03-23T18:33:56.314Z,33.25
2019-03-23T18:36:24.291Z,33.35
2019-03-23T18:38:52.260Z,32.78
2019-03-23T18:41:20.231Z,32.78
2019-03-23T18:43:48.217Z,33.08
2019-03-23T18:46:16.287Z,33.55
2019-03-23T18:48:44.426Z,59.13
2019-03-23T18:51:12.594Z,48.65
2019-03-23T18:53:40.895Z,32.03
2019-03-23T18:56:09.075Z,31.90
2019-03-23T18:58:37.161Z,34.55
2019-03-23T19:01:05.336Z,31.82
2019-03-23T19:03:33.588Z,32.15
2019-03-23T19:06:03.768Z,32.23
2019-03-23T19:08:31.998Z,31.65
2019-03-23T19:11:02.697Z,30.77
2019-03-23T19:16:02.421Z,34.20
2019-03-23T19:20:58.370Z,29.65
2019-03-23T19:23:26.638Z,30.45
2019-03-23T19:25:57.215Z,31.07
2019-03-23T19:28:27.021Z,30.97
2019-03-23T19:30:57.589Z,30.20
2019-03-23T19:35:53.286Z,28.02
2019-03-23T19:38:21.284Z,29.42
2019-03-23T19:40:49.285Z,29.80
2019-03-23T19:43:36.801Z,28.25
2019-03-23T19:46:06.152Z,29.40
2019-03-23T19:48:34.215Z,28.20
2019-03-23T19:51:03.805Z,27.90
2019-03-23T19:53:31.974Z,29.03
2019-03-23T19:55:59.988Z,28.02
2019-03-23T19:58:27.978Z,30.25
2019-03-23T20:00:55.964Z,28.25
2019-03-23T20:03:24.454Z,29.18
2019-03-23T20:05:52.482Z,27.60
2019-03-23T20:08:20.675Z,29.15
2019-03-23T20:10:48.707Z,29.65
2019-03-23T20:13:16.904Z,30.52
2019-03-23T20:15:44.991Z,29.32
2019-03-23T20:18:13.082Z,45.73
2019-03-23T20:20:41.142Z,105.32
2019-03-23T20:23:09.115Z,32.03
2019-03-23T20:25:37.149Z,28.87
2019-03-23T20:28:05.219Z,29.72
2019-03-23T20:30:33.179Z,30.70
2019-03-23T20:33:01.276Z,31.17
2019-03-23T20:35:29.432Z,34.18
2019-03-23T20:37:57.533Z,33.25
2019-03-23T20:40:25.777Z,33.23
2019-03-23T20:42:53.810Z,33.33
2019-03-23T20:45:28.438Z,32.20
2019-03-23T20:47:56.513Z,34.78
2019-03-23T20:50:24.566Z,34.98
2019-03-23T20:52:52.628Z,35.98
2019-03-23T20:55:26.992Z,36.00
2019-03-23T20:57:55.243Z,35.23
2019-03-23T21:00:23.228Z,37.40
2019-03-23T21:02:51.270Z,36.90
2019-03-23T21:05:19.270Z,36.42
2019-03-23T21:07:47.359Z,38.78
2019-03-23T21:10:15.493Z,37.88
2019-03-23T21:12:43.488Z,37.23
2019-03-23T21:15:11.600Z,97.62
2019-03-23T21:17:50.701Z,80.38
2019-03-23T21:20:09.767Z,43.52
2019-03-23T21:22:40.454Z,41.00
2019-03-23T21:27:35.905Z,37.60
2019-03-23T21:30:05.643Z,39.95
2019-03-23T21:32:33.615Z,40.80
2019-03-23T21:35:01.747Z,40.05
2019-03-23T21:37:29.915Z,39.75
2019-03-23T21:39:57.957Z,42.13
2019-03-23T21:42:25.940Z,41.77
2019-03-23T21:44:53.980Z,43.00
2019-03-23T21:47:21.968Z,42.98
2019-03-23T21:49:49.940Z,42.73
2019-03-23T21:52:17.913Z,41.95
2019-03-23T21:54:45.923Z,42.83
2019-03-23T21:57:13.893Z,44.67
2019-03-23T21:59:41.930Z,45.03
2019-03-23T22:02:09.957Z,43.83
2019-03-23T22:04:37.934Z,45.45
2019-03-23T22:07:05.920Z,44.95
2019-03-23T22:09:33.889Z,45.83
2019-03-23T22:12:01.869Z,45.15
2019-03-23T22:14:29.921Z,45.30
2019-03-23T22:16:57.894Z,45.98
2019-03-23T22:19:26.038Z,85.42
2019-03-23T22:21:54.104Z,113.37
2019-03-23T22:24:22.116Z,51.30
2019-03-23T22:26:50.100Z,46.20
2019-03-23T22:29:18.214Z,47.78
2019-03-23T22:31:46.283Z,46.05
2019-03-23T22:34:14.320Z,46.10
2019-03-23T22:36:42.426Z,47.55
2019-03-23T22:39:10.429Z,48.63
2019-03-23T22:41:38.411Z,52.25
2019-03-23T22:44:06.380Z,49.15
2019-03-23T22:46:34.370Z,48.23
2019-03-23T22:49:02.351Z,48.80
2019-03-23T22:51:30.317Z,49.13
2019-03-23T22:53:58.352Z,50.20
2019-03-23T22:56:26.345Z,47.80
2019-03-23T22:58:54.311Z,50.35
2019-03-23T23:01:22.292Z,49.73
2019-03-23T23:03:50.259Z,51.00
2019-03-23T23:06:18.243Z,51.90
2019-03-23T23:08:46.272Z,51.40
2019-03-23T23:11:14.259Z,51.98
2019-03-23T23:13:42.275Z,52.43
2019-03-23T23:16:10.207Z,51.13
2019-03-23T23:18:38.316Z,50.15
2019-03-23T23:21:06.312Z,52.83
2019-03-23T23:23:34.300Z,52.80
2019-03-23T23:26:02.306Z,53.50
2019-03-23T23:28:30.339Z,51.85
2019-03-23T23:30:58.347Z,54.77
2019-03-23T23:33:26.405Z,53.52
2019-03-23T23:35:54.380Z,53.98
2019-03-23T23:38:22.348Z,53.05
2019-03-23T23:40:50.387Z,51.98
2019-03-23T23:43:18.363Z,53.95
2019-03-23T23:45:46.353Z,54.05
2019-03-23T23:48:14.332Z,53.45
2019-03-23T23:50:42.331Z,58.20
2019-03-23T23:53:10.319Z,55.28
2019-03-23T23:55:38.292Z,54.85
2019-03-23T23:58:06.283Z,54.95
